sensor_id;sensor_type;location;lat;lon;timestamp;P1;durP1;ratioP1;P2;durP2;ratioP2
28627;SDS011;15815;46.760;19.604;2024-01-15T00:02:08;71.07;;;29.30;;
28627;SDS011;15815;46.760;19.604;2024-01-15T00:04:40;70.72;;;29.80;;
28627;SDS011;15815;46.760;19.604;2024-01-15T00:07:07;82.22;;;31.55;;
28627;SDS011;15815;46.760;19.604;2024-01-15T00:09:37;91.03;;;37.20;;
28627;SDS011;15815;46.760;19.604;2024-01-15T00:12:03;76.85;;;32.83;;
28627;SDS011;15815;46.760;19.604;2024-01-15T00:14:37;85.18;;;32.45;;
28627;SDS011;15815;46.760;19.604;2024-01-15T00:17:02;78.10;;;32.85;;
28627;SDS011;15815;46.760;19.604;2024-01-15T00:19:28;78.07;;;30.50;;
28627;SDS011;15815;46.760;19.604;2024-01-15T00:21:53;81.07;;;31.52;;
28627;SDS011;15815;46.760;19.604;2024-01-15T00:24:19;92.35;;;33.33;;
28627;SDS011;15815;46.760;19.604;2024-01-15T00:26:44;76.63;;;29.70;;
28627;SDS011;15815;46.760;19.604;2024-01-15T00:29:10;80.43;;;29.27;;
28627;SDS011;15815;46.760;19.604;2024-01-15T00:31:38;80.88;;;32.58;;
28627;SDS011;15815;46.760;19.604;2024-01-15T00:34:04;78.53;;;32.13;;
28627;SDS011;15815;46.760;19.604;2024-01-15T00:36:30;92.80;;;35.83;;
28627;SDS011;15815;46.760;19.604;2024-01-15T00:38:55;79.53;;;30.58;;
28627;SDS011;15815;46.760;19.604;2024-01-15T00:41:21;75.90;;;31.55;;
28627;SDS011;15815;46.760;19.604;2024-01-15T00:43:46;87.55;;;32.20;;
28627;SDS011;15815;46.760;19.604;2024-01-15T00:46:12;72.50;;;31.25;;
28627;SDS011;15815;46.760;19.604;2024-01-15T00:48:37;72.65;;;29.42;;
28627;SDS011;15815;46.760;19.604;2024-01-15T00:51:04;72.93;;;27.88;;
28627;SDS011;15815;46.760;19.604;2024-01-15T00:53:31;76.65;;;30.17;;
28627;SDS011;15815;46.760;19.604;2024-01-15T00:55:56;80.35;;;31.08;;
28627;SDS011;15815;46.760;19.604;2024-01-15T00:58:35;96.72;;;35.13;;
28627;SDS011;15815;46.760;19.604;2024-01-15T01:01:01;69.72;;;29.08;;
28627;SDS011;15815;46.760;19.604;2024-01-15T01:03:26;72.22;;;29.38;;
28627;SDS011;15815;46.760;19.604;2024-01-15T01:05:52;74.13;;;28.33;;
28627;SDS011;15815;46.760;19.604;2024-01-15T01:08:17;74.65;;;30.33;;
28627;SDS011;15815;46.760;19.604;2024-01-15T01:10:43;70.60;;;28.33;;
28627;SDS011;15815;46.760;19.604;2024-01-15T01:13:12;72.72;;;27.58;;
28627;SDS011;15815;46.760;19.604;2024-01-15T01:15:37;64.30;;;27.65;;
28627;SDS011;15815;46.760;19.604;2024-01-15T01:18:03;69.57;;;29.50;;
28627;SDS011;15815;46.760;19.604;2024-01-15T01:20:31;72.13;;;27.30;;
28627;SDS011;15815;46.760;19.604;2024-01-15T01:22:57;66.70;;;26.63;;
28627;SDS011;15815;46.760;19.604;2024-01-15T01:25:22;71.50;;;27.27;;
28627;SDS011;15815;46.760;19.604;2024-01-15T01:27:48;64.68;;;27.33;;
28627;SDS011;15815;46.760;19.604;2024-01-15T01:30:25;62.72;;;27.58;;
28627;SDS011;15815;46.760;19.604;2024-01-15T01:32:51;65.78;;;27.75;;
28627;SDS011;15815;46.760;19.604;2024-01-15T01:35:17;70.25;;;27.80;;
28627;SDS011;15815;46.760;19.604;2024-01-15T01:37:42;68.82;;;28.00;;
28627;SDS011;15815;46.760;19.604;2024-01-15T01:40:08;67.05;;;28.05;;
28627;SDS011;15815;46.760;19.604;2024-01-15T01:45:50;69.88;;;28.13;;
28627;SDS011;15815;46.760;19.604;2024-01-15T01:48:23;70.57;;;27.60;;
28627;SDS011;15815;46.760;19.604;2024-01-15T01:50:50;80.90;;;30.02;;
28627;SDS011;15815;46.760;19.604;2024-01-15T01:53:17;67.97;;;28.33;;
28627;SDS011;15815;46.760;19.604;2024-01-15T01:55:42;65.22;;;27.75;;
28627;SDS011;15815;46.760;19.604;2024-01-15T02:01:00;71.45;;;29.42;;
28627;SDS011;15815;46.760;19.604;2024-01-15T02:03:27;69.38;;;30.13;;
28627;SDS011;15815;46.760;19.604;2024-01-15T02:05:53;78.15;;;29.40;;
28627;SDS011;15815;46.760;19.604;2024-01-15T02:08:21;76.53;;;31.90;;
28627;SDS011;15815;46.760;19.604;2024-01-15T02:10:47;74.10;;;30.45;;
28627;SDS011;15815;46.760;19.604;2024-01-15T02:16:05;80.63;;;32.60;;
28627;SDS011;15815;46.760;19.604;2024-01-15T02:18:49;81.25;;;31.48;;
28627;SDS011;15815;46.760;19.604;2024-01-15T02:21:15;88.97;;;30.25;;
28627;SDS011;15815;46.760;19.604;2024-01-15T02:23:41;85.55;;;30.15;;
28627;SDS011;15815;46.760;19.604;2024-01-15T02:26:09;80.70;;;31.55;;
28627;SDS011;15815;46.760;19.604;2024-01-15T02:28:36;80.18;;;32.63;;
28627;SDS011;15815;46.760;19.604;2024-01-15T02:31:03;81.97;;;30.90;;
28627;SDS011;15815;46.760;19.604;2024-01-15T02:33:29;72.15;;;30.38;;
28627;SDS011;15815;46.760;19.604;2024-01-15T02:35:55;80.93;;;30.95;;
28627;SDS011;15815;46.760;19.604;2024-01-15T02:38:20;78.10;;;29.00;;
28627;SDS011;15815;46.760;19.604;2024-01-15T02:40:46;77.88;;;30.17;;
28627;SDS011;15815;46.760;19.604;2024-01-15T02:43:23;90.88;;;33.08;;
28627;SDS011;15815;46.760;19.604;2024-01-15T02:45:49;78.13;;;32.00;;
28627;SDS011;15815;46.760;19.604;2024-01-15T02:48:15;81.85;;;32.92;;
28627;SDS011;15815;46.760;19.604;2024-01-15T02:50:43;91.78;;;34.00;;
28627;SDS011;15815;46.760;19.604;2024-01-15T02:53:09;84.93;;;31.20;;
28627;SDS011;15815;46.760;19.604;2024-01-15T02:55:34;75.20;;;29.15;;
28627;SDS011;15815;46.760;19.604;2024-01-15T02:58:15;75.25;;;30.05;;
28627;SDS011;15815;46.760;19.604;2024-01-15T03:00:44;75.80;;;30.38;;
28627;SDS011;15815;46.760;19.604;2024-01-15T03:03:09;78.65;;;30.42;;
28627;SDS011;15815;46.760;19.604;2024-01-15T03:05:39;81.57;;;30.42;;
28627;SDS011;15815;46.760;19.604;2024-01-15T03:08:05;77.80;;;31.42;;
28627;SDS011;15815;46.760;19.604;2024-01-15T03:10:33;73.80;;;28.92;;
28627;SDS011;15815;46.760;19.604;2024-01-15T03:12:59;73.65;;;29.48;;
28627;SDS011;15815;46.760;19.604;2024-01-15T03:15:24;71.32;;;28.90;;
28627;SDS011;15815;46.760;19.604;2024-01-15T03:17:50;72.22;;;30.25;;
28627;SDS011;15815;46.760;19.604;2024-01-15T03:20:15;73.95;;;29.77;;
28627;SDS011;15815;46.760;19.604;2024-01-15T03:22:43;78.60;;;31.88;;
28627;SDS011;15815;46.760;19.604;2024-01-15T03:25:10;67.93;;;28.85;;
28627;SDS011;15815;46.760;19.604;2024-01-15T03:27:35;68.72;;;29.00;;
28627;SDS011;15815;46.760;19.604;2024-01-15T03:30:01;64.43;;;27.58;;
28627;SDS011;15815;46.760;19.604;2024-01-15T03:32:27;69.55;;;28.75;;
28627;SDS011;15815;46.760;19.604;2024-01-15T03:34:56;67.28;;;26.95;;
28627;SDS011;15815;46.760;19.604;2024-01-15T03:37:21;67.47;;;27.85;;
28627;SDS011;15815;46.760;19.604;2024-01-15T03:39:47;64.90;;;27.50;;
28627;SDS011;15815;46.760;19.604;2024-01-15T03:42:15;66.50;;;28.58;;
28627;SDS011;15815;46.760;19.604;2024-01-15T03:47:21;69.72;;;28.75;;
28627;SDS011;15815;46.760;19.604;2024-01-15T03:49:47;69.40;;;28.77;;
28627;SDS011;15815;46.760;19.604;2024-01-15T03:52:13;73.55;;;27.35;;
28627;SDS011;15815;46.760;19.604;2024-01-15T03:54:41;75.50;;;27.98;;
28627;SDS011;15815;46.760;19.604;2024-01-15T03:57:07;65.40;;;27.13;;
28627;SDS011;15815;46.760;19.604;2024-01-15T03:59:33;66.97;;;28.77;;
28627;SDS011;15815;46.760;19.604;2024-01-15T04:02:04;70.65;;;28.00;;
28627;SDS011;15815;46.760;19.604;2024-01-15T04:04:29;74.25;;;28.33;;
28627;SDS011;15815;46.760;19.604;2024-01-15T04:06:55;86.05;;;32.92;;
28627;SDS011;15815;46.760;19.604;2024-01-15T04:11:51;74.82;;;30.45;;
28627;SDS011;15815;46.760;19.604;2024-01-15T04:14:17;88.13;;;33.90;;
28627;SDS011;15815;46.760;19.604;2024-01-15T04:16:42;72.45;;;29.80;;
28627;SDS011;15815;46.760;19.604;2024-01-15T04:19:08;88.20;;;34.22;;
28627;SDS011;15815;46.760;19.604;2024-01-15T04:21:33;107.35;;;39.83;;
28627;SDS011;15815;46.760;19.604;2024-01-15T04:23:59;90.90;;;35.78;;
28627;SDS011;15815;46.760;19.604;2024-01-15T04:26:25;93.95;;;34.10;;
28627;SDS011;15815;46.760;19.604;2024-01-15T04:28:50;82.10;;;33.70;;
28627;SDS011;15815;46.760;19.604;2024-01-15T04:31:23;93.43;;;35.50;;
28627;SDS011;15815;46.760;19.604;2024-01-15T04:33:49;86.43;;;33.63;;
28627;SDS011;15815;46.760;19.604;2024-01-15T04:36:15;84.05;;;34.97;;
28627;SDS011;15815;46.760;19.604;2024-01-15T04:38:40;89.97;;;34.25;;
28627;SDS011;15815;46.760;19.604;2024-01-15T04:41:06;82.60;;;31.98;;
28627;SDS011;15815;46.760;19.604;2024-01-15T04:43:36;88.95;;;34.13;;
28627;SDS011;15815;46.760;19.604;2024-01-15T04:46:02;83.10;;;33.58;;
28627;SDS011;15815;46.760;19.604;2024-01-15T04:48:28;99.65;;;36.92;;
28627;SDS011;15815;46.760;19.604;2024-01-15T04:50:54;85.03;;;34.38;;
28627;SDS011;15815;46.760;19.604;2024-01-15T04:53:23;84.35;;;35.20;;
28627;SDS011;15815;46.760;19.604;2024-01-15T04:55:48;83.88;;;34.28;;
28627;SDS011;15815;46.760;19.604;2024-01-15T04:58:24;83.28;;;34.60;;
28627;SDS011;15815;46.760;19.604;2024-01-15T05:00:50;90.22;;;34.33;;
28627;SDS011;15815;46.760;19.604;2024-01-15T05:03:18;77.95;;;33.40;;
28627;SDS011;15815;46.760;19.604;2024-01-15T05:05:44;88.03;;;35.50;;
28627;SDS011;15815;46.760;19.604;2024-01-15T05:08:10;94.47;;;36.45;;
28627;SDS011;15815;46.760;19.604;2024-01-15T05:10:35;86.28;;;32.92;;
28627;SDS011;15815;46.760;19.604;2024-01-15T05:13:05;80.43;;;33.92;;
28627;SDS011;15815;46.760;19.604;2024-01-15T05:15:30;75.00;;;33.00;;
28627;SDS011;15815;46.760;19.604;2024-01-15T05:17:57;82.93;;;35.53;;
28627;SDS011;15815;46.760;19.604;2024-01-15T05:20:23;78.45;;;36.70;;
28627;SDS011;15815;46.760;19.604;2024-01-15T05:22:52;93.88;;;39.08;;
28627;SDS011;15815;46.760;19.604;2024-01-15T05:25:18;107.70;;;43.67;;
28627;SDS011;15815;46.760;19.604;2024-01-15T05:27:45;109.70;;;44.53;;
28627;SDS011;15815;46.760;19.604;2024-01-15T05:30:17;123.18;;;52.63;;
28627;SDS011;15815;46.760;19.604;2024-01-15T05:32:43;123.97;;;50.17;;
28627;SDS011;15815;46.760;19.604;2024-01-15T05:35:08;124.57;;;50.72;;
28627;SDS011;15815;46.760;19.604;2024-01-15T05:37:34;178.32;;;64.05;;
28627;SDS011;15815;46.760;19.604;2024-01-15T05:40:00;96.90;;;43.47;;
28627;SDS011;15815;46.760;19.604;2024-01-15T05:42:25;85.70;;;38.30;;
28627;SDS011;15815;46.760;19.604;2024-01-15T05:44:53;87.18;;;38.78;;
28627;SDS011;15815;46.760;19.604;2024-01-15T05:47:21;75.93;;;37.83;;
28627;SDS011;15815;46.760;19.604;2024-01-15T05:49:47;87.10;;;37.03;;
28627;SDS011;15815;46.760;19.604;2024-01-15T05:52:13;78.75;;;34.35;;
28627;SDS011;15815;46.760;19.604;2024-01-15T05:54:39;79.53;;;34.47;;
28627;SDS011;15815;46.760;19.604;2024-01-15T05:57:11;74.68;;;34.22;;
28627;SDS011;15815;46.760;19.604;2024-01-15T05:59:36;98.10;;;39.17;;
28627;SDS011;15815;46.760;19.604;2024-01-15T06:02:02;112.65;;;46.13;;
28627;SDS011;15815;46.760;19.604;2024-01-15T06:04:29;93.07;;;41.60;;
28627;SDS011;15815;46.760;19.604;2024-01-15T06:06:55;98.22;;;43.40;;
28627;SDS011;15815;46.760;19.604;2024-01-15T06:09:20;103.20;;;44.05;;
28627;SDS011;15815;46.760;19.604;2024-01-15T06:11:46;104.25;;;43.10;;
28627;SDS011;15815;46.760;19.604;2024-01-15T06:14:12;89.60;;;37.95;;
28627;SDS011;15815;46.760;19.604;2024-01-15T06:16:38;107.75;;;44.72;;
28627;SDS011;15815;46.760;19.604;2024-01-15T06:19:03;100.57;;;40.60;;
28627;SDS011;15815;46.760;19.604;2024-01-15T06:21:30;100.22;;;40.30;;
28627;SDS011;15815;46.760;19.604;2024-01-15T06:23:56;101.47;;;42.38;;
28627;SDS011;15815;46.760;19.604;2024-01-15T06:26:24;144.70;;;54.50;;
28627;SDS011;15815;46.760;19.604;2024-01-15T06:28:54;138.95;;;54.10;;
28627;SDS011;15815;46.760;19.604;2024-01-15T06:31:20;134.18;;;48.15;;
28627;SDS011;15815;46.760;19.604;2024-01-15T06:33:46;169.35;;;60.42;;
28627;SDS011;15815;46.760;19.604;2024-01-15T06:36:24;167.82;;;64.10;;
28627;SDS011;15815;46.760;19.604;2024-01-15T06:38:49;158.35;;;62.08;;
28627;SDS011;15815;46.760;19.604;2024-01-15T06:41:15;146.40;;;58.35;;
28627;SDS011;15815;46.760;19.604;2024-01-15T06:43:58;141.60;;;58.97;;
28627;SDS011;15815;46.760;19.604;2024-01-15T06:46:23;126.95;;;51.50;;
28627;SDS011;15815;46.760;19.604;2024-01-15T06:48:52;114.78;;;52.92;;
28627;SDS011;15815;46.760;19.604;2024-01-15T06:51:18;124.80;;;49.85;;
28627;SDS011;15815;46.760;19.604;2024-01-15T06:53:44;133.73;;;52.35;;
28627;SDS011;15815;46.760;19.604;2024-01-15T06:56:10;135.60;;;53.60;;
28627;SDS011;15815;46.760;19.604;2024-01-15T06:58:36;124.60;;;52.47;;
28627;SDS011;15815;46.760;19.604;2024-01-15T07:01:02;132.98;;;51.22;;
28627;SDS011;15815;46.760;19.604;2024-01-15T07:03:28;120.03;;;53.45;;
28627;SDS011;15815;46.760;19.604;2024-01-15T07:05:53;109.32;;;45.00;;
28627;SDS011;15815;46.760;19.604;2024-01-15T07:08:19;116.93;;;49.45;;
28627;SDS011;15815;46.760;19.604;2024-01-15T07:10:44;129.15;;;54.05;;
28627;SDS011;15815;46.760;19.604;2024-01-15T07:13:10;128.27;;;55.53;;
28627;SDS011;15815;46.760;19.604;2024-01-15T07:15:35;123.90;;;53.60;;
28627;SDS011;15815;46.760;19.604;2024-01-15T07:18:01;150.82;;;61.38;;
28627;SDS011;15815;46.760;19.604;2024-01-15T07:20:27;122.60;;;51.33;;
28627;SDS011;15815;46.760;19.604;2024-01-15T07:22:53;132.77;;;56.78;;
28627;SDS011;15815;46.760;19.604;2024-01-15T07:25:19;140.90;;;56.70;;
28627;SDS011;15815;46.760;19.604;2024-01-15T07:27:44;131.32;;;54.35;;
28627;SDS011;15815;46.760;19.604;2024-01-15T07:30:16;120.43;;;51.88;;
28627;SDS011;15815;46.760;19.604;2024-01-15T07:32:42;126.97;;;52.72;;
28627;SDS011;15815;46.760;19.604;2024-01-15T07:35:10;110.97;;;50.88;;
28627;SDS011;15815;46.760;19.604;2024-01-15T07:37:36;96.85;;;45.90;;
28627;SDS011;15815;46.760;19.604;2024-01-15T07:40:01;90.32;;;43.55;;
28627;SDS011;15815;46.760;19.604;2024-01-15T07:42:28;91.43;;;41.55;;
28627;SDS011;15815;46.760;19.604;2024-01-15T07:44:53;86.10;;;40.33;;
28627;SDS011;15815;46.760;19.604;2024-01-15T07:47:19;83.45;;;37.33;;
28627;SDS011;15815;46.760;19.604;2024-01-15T07:49:44;95.18;;;40.33;;
28627;SDS011;15815;46.760;19.604;2024-01-15T07:52:10;85.85;;;36.45;;
28627;SDS011;15815;46.760;19.604;2024-01-15T07:54:35;72.18;;;34.10;;
28627;SDS011;15815;46.760;19.604;2024-01-15T07:57:01;89.47;;;38.13;;
28627;SDS011;15815;46.760;19.604;2024-01-15T07:59:28;83.90;;;38.95;;
28627;SDS011;15815;46.760;19.604;2024-01-15T08:01:54;74.18;;;33.40;;
28627;SDS011;15815;46.760;19.604;2024-01-15T08:04:20;76.88;;;35.47;;
28627;SDS011;15815;46.760;19.604;2024-01-15T08:06:46;72.10;;;32.10;;
28627;SDS011;15815;46.760;19.604;2024-01-15T08:09:12;63.00;;;30.08;;
28627;SDS011;15815;46.760;19.604;2024-01-15T08:11:40;66.75;;;31.48;;
28627;SDS011;15815;46.760;19.604;2024-01-15T08:14:06;63.95;;;29.30;;
28627;SDS011;15815;46.760;19.604;2024-01-15T08:16:31;66.15;;;30.20;;
28627;SDS011;15815;46.760;19.604;2024-01-15T08:18:57;61.38;;;29.33;;
28627;SDS011;15815;46.760;19.604;2024-01-15T08:21:23;67.65;;;31.10;;
28627;SDS011;15815;46.760;19.604;2024-01-15T08:23:48;88.13;;;38.83;;
28627;SDS011;15815;46.760;19.604;2024-01-15T08:26:14;88.20;;;39.15;;
28627;SDS011;15815;46.760;19.604;2024-01-15T08:28:39;84.93;;;37.85;;
28627;SDS011;15815;46.760;19.604;2024-01-15T08:31:06;96.22;;;43.33;;
28627;SDS011;15815;46.760;19.604;2024-01-15T08:33:33;92.00;;;42.40;;
28627;SDS011;15815;46.760;19.604;2024-01-15T08:35:59;92.07;;;42.30;;
28627;SDS011;15815;46.760;19.604;2024-01-15T08:38:24;93.97;;;41.65;;
28627;SDS011;15815;46.760;19.604;2024-01-15T08:40:59;76.95;;;38.72;;
28627;SDS011;15815;46.760;19.604;2024-01-15T08:43:24;86.85;;;40.08;;
28627;SDS011;15815;46.760;19.604;2024-01-15T08:45:50;92.35;;;41.75;;
28627;SDS011;15815;46.760;19.604;2024-01-15T08:48:16;95.13;;;42.38;;
28627;SDS011;15815;46.760;19.604;2024-01-15T08:50:41;121.20;;;44.58;;
28627;SDS011;15815;46.760;19.604;2024-01-15T08:53:07;136.50;;;52.58;;
28627;SDS011;15815;46.760;19.604;2024-01-15T08:55:32;95.25;;;42.28;;
28627;SDS011;15815;46.760;19.604;2024-01-15T08:57:58;77.68;;;36.95;;
28627;SDS011;15815;46.760;19.604;2024-01-15T09:00:24;73.20;;;33.55;;
28627;SDS011;15815;46.760;19.604;2024-01-15T09:02:49;78.68;;;33.92;;
28627;SDS011;15815;46.760;19.604;2024-01-15T09:05:15;80.05;;;34.25;;
28627;SDS011;15815;46.760;19.604;2024-01-15T09:07:40;85.43;;;35.67;;
28627;SDS011;15815;46.760;19.604;2024-01-15T09:10:06;68.50;;;32.20;;
28627;SDS011;15815;46.760;19.604;2024-01-15T09:12:32;72.32;;;30.80;;
28627;SDS011;15815;46.760;19.604;2024-01-15T09:14:58;65.78;;;31.80;;
28627;SDS011;15815;46.760;19.604;2024-01-15T09:17:23;66.35;;;31.48;;
28627;SDS011;15815;46.760;19.604;2024-01-15T09:19:49;62.88;;;29.83;;
28627;SDS011;15815;46.760;19.604;2024-01-15T09:22:15;77.30;;;32.58;;
28627;SDS011;15815;46.760;19.604;2024-01-15T09:24:40;68.13;;;33.50;;
28627;SDS011;15815;46.760;19.604;2024-01-15T09:27:07;122.40;;;49.13;;
28627;SDS011;15815;46.760;19.604;2024-01-15T09:29:32;87.68;;;37.03;;
28627;SDS011;15815;46.760;19.604;2024-01-15T09:31:58;72.72;;;33.90;;
28627;SDS011;15815;46.760;19.604;2024-01-15T09:34:23;64.25;;;30.48;;
28627;SDS011;15815;46.760;19.604;2024-01-15T09:36:49;69.25;;;32.47;;
28627;SDS011;15815;46.760;19.604;2024-01-15T09:39:15;80.75;;;36.03;;
28627;SDS011;15815;46.760;19.604;2024-01-15T09:41:40;82.70;;;34.92;;
28627;SDS011;15815;46.760;19.604;2024-01-15T09:44:06;70.13;;;32.08;;
28627;SDS011;15815;46.760;19.604;2024-01-15T09:46:34;65.45;;;30.10;;
28627;SDS011;15815;46.760;19.604;2024-01-15T09:49:00;69.68;;;30.90;;
28627;SDS011;15815;46.760;19.604;2024-01-15T09:51:26;63.13;;;29.52;;
28627;SDS011;15815;46.760;19.604;2024-01-15T09:53:53;67.45;;;30.63;;
28627;SDS011;15815;46.760;19.604;2024-01-15T09:56:20;74.90;;;33.20;;
28627;SDS011;15815;46.760;19.604;2024-01-15T09:58:46;73.75;;;35.30;;
28627;SDS011;15815;46.760;19.604;2024-01-15T10:01:12;71.28;;;33.45;;
28627;SDS011;15815;46.760;19.604;2024-01-15T10:03:39;81.53;;;35.78;;
28627;SDS011;15815;46.760;19.604;2024-01-15T10:06:05;78.63;;;37.13;;
28627;SDS011;15815;46.760;19.604;2024-01-15T10:08:36;82.10;;;39.47;;
28627;SDS011;15815;46.760;19.604;2024-01-15T10:11:02;105.20;;;44.33;;
28627;SDS011;15815;46.760;19.604;2024-01-15T10:13:28;102.18;;;43.97;;
28627;SDS011;15815;46.760;19.604;2024-01-15T10:15:55;96.05;;;41.28;;
28627;SDS011;15815;46.760;19.604;2024-01-15T10:18:21;98.07;;;43.95;;
28627;SDS011;15815;46.760;19.604;2024-01-15T10:20:47;99.13;;;42.33;;
28627;SDS011;15815;46.760;19.604;2024-01-15T10:23:15;90.13;;;40.13;;
28627;SDS011;15815;46.760;19.604;2024-01-15T10:25:44;105.88;;;43.95;;
28627;SDS011;15815;46.760;19.604;2024-01-15T10:28:09;112.10;;;46.80;;
28627;SDS011;15815;46.760;19.604;2024-01-15T10:30:35;102.25;;;43.95;;
28627;SDS011;15815;46.760;19.604;2024-01-15T10:33:01;85.82;;;38.85;;
28627;SDS011;15815;46.760;19.604;2024-01-15T10:35:32;101.20;;;43.92;;
28627;SDS011;15815;46.760;19.604;2024-01-15T10:38:02;84.70;;;36.43;;
28627;SDS011;15815;46.760;19.604;2024-01-15T10:40:30;61.92;;;29.73;;
28627;SDS011;15815;46.760;19.604;2024-01-15T10:42:57;66.40;;;30.75;;
28627;SDS011;15815;46.760;19.604;2024-01-15T10:45:23;55.92;;;26.67;;
28627;SDS011;15815;46.760;19.604;2024-01-15T10:47:48;64.68;;;26.90;;
28627;SDS011;15815;46.760;19.604;2024-01-15T10:50:14;57.83;;;27.10;;
28627;SDS011;15815;46.760;19.604;2024-01-15T10:52:40;62.33;;;26.48;;
28627;SDS011;15815;46.760;19.604;2024-01-15T10:55:06;66.10;;;28.95;;
28627;SDS011;15815;46.760;19.604;2024-01-15T10:57:33;71.93;;;27.40;;
28627;SDS011;15815;46.760;19.604;2024-01-15T10:59:59;82.90;;;31.10;;
28627;SDS011;15815;46.760;19.604;2024-01-15T11:02:24;82.72;;;30.25;;
28627;SDS011;15815;46.760;19.604;2024-01-15T11:04:51;64.10;;;27.88;;
28627;SDS011;15815;46.760;19.604;2024-01-15T11:07:16;71.85;;;30.10;;
28627;SDS011;15815;46.760;19.604;2024-01-15T11:09:42;61.58;;;29.52;;
28627;SDS011;15815;46.760;19.604;2024-01-15T11:12:12;60.67;;;28.58;;
28627;SDS011;15815;46.760;19.604;2024-01-15T11:17:15;49.83;;;24.40;;
28627;SDS011;15815;46.760;19.604;2024-01-15T11:22:11;59.80;;;29.15;;
28627;SDS011;15815;46.760;19.604;2024-01-15T11:24:56;54.92;;;25.77;;
28627;SDS011;15815;46.760;19.604;2024-01-15T11:27:45;77.45;;;35.10;;
28627;SDS011;15815;46.760;19.604;2024-01-15T11:30:12;79.70;;;34.37;;
28627;SDS011;15815;46.760;19.604;2024-01-15T11:32:39;84.72;;;38.22;;
28627;SDS011;15815;46.760;19.604;2024-01-15T11:35:06;108.53;;;41.38;;
28627;SDS011;15815;46.760;19.604;2024-01-15T11:40:19;79.10;;;32.22;;
28627;SDS011;15815;46.760;19.604;2024-01-15T11:42:58;69.10;;;30.92;;
28627;SDS011;15815;46.760;19.604;2024-01-15T11:45:24;58.72;;;29.42;;
28627;SDS011;15815;46.760;19.604;2024-01-15T11:50:38;52.42;;;25.80;;
28627;SDS011;15815;46.760;19.604;2024-01-15T11:53:06;51.35;;;24.33;;
28627;SDS011;15815;46.760;19.604;2024-01-15T11:55:57;55.45;;;25.27;;
28627;SDS011;15815;46.760;19.604;2024-01-15T11:58:24;54.78;;;23.52;;
28627;SDS011;15815;46.760;19.604;2024-01-15T12:00:50;46.00;;;22.48;;
28627;SDS011;15815;46.760;19.604;2024-01-15T12:03:16;44.60;;;21.92;;
28627;SDS011;15815;46.760;19.604;2024-01-15T12:05:42;58.72;;;24.23;;
28627;SDS011;15815;46.760;19.604;2024-01-15T12:08:08;52.33;;;22.40;;
28627;SDS011;15815;46.760;19.604;2024-01-15T12:10:33;61.42;;;24.42;;
28627;SDS011;15815;46.760;19.604;2024-01-15T12:13:04;58.65;;;24.92;;
28627;SDS011;15815;46.760;19.604;2024-01-15T12:15:33;56.28;;;25.08;;
28627;SDS011;15815;46.760;19.604;2024-01-15T12:18:00;49.53;;;23.38;;
28627;SDS011;15815;46.760;19.604;2024-01-15T12:20:26;58.58;;;25.55;;
28627;SDS011;15815;46.760;19.604;2024-01-15T12:22:52;71.85;;;28.33;;
28627;SDS011;15815;46.760;19.604;2024-01-15T12:25:18;79.43;;;30.95;;
28627;SDS011;15815;46.760;19.604;2024-01-15T12:27:44;51.20;;;23.10;;
28627;SDS011;15815;46.760;19.604;2024-01-15T12:30:11;39.95;;;20.50;;
28627;SDS011;15815;46.760;19.604;2024-01-15T12:32:38;42.17;;;19.13;;
28627;SDS011;15815;46.760;19.604;2024-01-15T12:35:05;46.40;;;22.38;;
28627;SDS011;15815;46.760;19.604;2024-01-15T12:37:32;53.38;;;22.80;;
28627;SDS011;15815;46.760;19.604;2024-01-15T12:40:00;41.50;;;19.23;;
28627;SDS011;15815;46.760;19.604;2024-01-15T12:42:27;37.08;;;18.90;;
28627;SDS011;15815;46.760;19.604;2024-01-15T12:44:54;68.53;;;28.58;;
28627;SDS011;15815;46.760;19.604;2024-01-15T12:47:22;46.97;;;19.42;;
28627;SDS011;15815;46.760;19.604;2024-01-15T12:49:48;41.40;;;18.58;;
28627;SDS011;15815;46.760;19.604;2024-01-15T12:52:13;51.20;;;21.88;;
28627;SDS011;15815;46.760;19.604;2024-01-15T12:54:42;50.13;;;22.02;;
28627;SDS011;15815;46.760;19.604;2024-01-15T12:57:07;50.10;;;22.42;;
28627;SDS011;15815;46.760;19.604;2024-01-15T12:59:33;46.75;;;21.65;;
28627;SDS011;15815;46.760;19.604;2024-01-15T13:01:59;46.15;;;21.00;;
28627;SDS011;15815;46.760;19.604;2024-01-15T13:04:24;47.10;;;21.88;;
28627;SDS011;15815;46.760;19.604;2024-01-15T13:06:51;81.65;;;38.35;;
28627;SDS011;15815;46.760;19.604;2024-01-15T13:09:16;53.22;;;22.85;;
28627;SDS011;15815;46.760;19.604;2024-01-15T13:11:45;56.88;;;21.48;;
28627;SDS011;15815;46.760;19.604;2024-01-15T13:14:12;59.50;;;20.60;;
28627;SDS011;15815;46.760;19.604;2024-01-15T13:16:38;49.05;;;20.50;;
28627;SDS011;15815;46.760;19.604;2024-01-15T13:19:04;53.08;;;19.02;;
28627;SDS011;15815;46.760;19.604;2024-01-15T13:21:30;64.07;;;20.98;;
28627;SDS011;15815;46.760;19.604;2024-01-15T13:23:55;45.17;;;19.92;;
28627;SDS011;15815;46.760;19.604;2024-01-15T13:26:21;43.92;;;21.38;;
28627;SDS011;15815;46.760;19.604;2024-01-15T13:28:46;60.03;;;32.15;;
28627;SDS011;15815;46.760;19.604;2024-01-15T13:31:12;45.88;;;22.77;;
28627;SDS011;15815;46.760;19.604;2024-01-15T13:33:39;47.50;;;22.33;;
28627;SDS011;15815;46.760;19.604;2024-01-15T13:36:04;43.45;;;20.15;;
28627;SDS011;15815;46.760;19.604;2024-01-15T13:38:30;48.15;;;22.02;;
28627;SDS011;15815;46.760;19.604;2024-01-15T13:40:55;49.90;;;23.88;;
28627;SDS011;15815;46.760;19.604;2024-01-15T13:43:21;60.45;;;27.65;;
28627;SDS011;15815;46.760;19.604;2024-01-15T13:45:47;66.60;;;28.52;;
28627;SDS011;15815;46.760;19.604;2024-01-15T13:48:12;65.72;;;30.27;;
28627;SDS011;15815;46.760;19.604;2024-01-15T13:50:38;67.43;;;27.83;;
28627;SDS011;15815;46.760;19.604;2024-01-15T13:53:03;57.40;;;25.25;;
28627;SDS011;15815;46.760;19.604;2024-01-15T13:55:29;59.78;;;27.40;;
28627;SDS011;15815;46.760;19.604;2024-01-15T13:57:56;57.20;;;26.27;;
28627;SDS011;15815;46.760;19.604;2024-01-15T14:00:23;51.15;;;23.85;;
28627;SDS011;15815;46.760;19.604;2024-01-15T14:02:49;50.20;;;22.17;;
28627;SDS011;15815;46.760;19.604;2024-01-15T14:05:14;69.40;;;28.77;;
28627;SDS011;15815;46.760;19.604;2024-01-15T14:07:40;77.57;;;29.67;;
28627;SDS011;15815;46.760;19.604;2024-01-15T14:10:06;58.25;;;29.02;;
28627;SDS011;15815;46.760;19.604;2024-01-15T14:12:33;60.95;;;29.15;;
28627;SDS011;15815;46.760;19.604;2024-01-15T14:14:59;52.50;;;26.05;;
28627;SDS011;15815;46.760;19.604;2024-01-15T14:17:24;47.95;;;25.85;;
28627;SDS011;15815;46.760;19.604;2024-01-15T14:19:50;44.97;;;22.05;;
28627;SDS011;15815;46.760;19.604;2024-01-15T14:22:16;36.80;;;19.42;;
28627;SDS011;15815;46.760;19.604;2024-01-15T14:24:41;39.53;;;20.35;;
28627;SDS011;15815;46.760;19.604;2024-01-15T14:27:07;39.53;;;20.00;;
28627;SDS011;15815;46.760;19.604;2024-01-15T14:29:32;51.40;;;22.55;;